createdAt,value
2022-09-05T00:00:31.159Z,54.90
2022-09-05T00:03:14.557Z,54.86
2022-09-05T00:06:03.624Z,55.04
2022-09-05T00:08:44.143Z,55.13
2022-09-05T00:11:42.785Z,55.41
2022-09-05T00:14:35.277Z,55.32
2022-09-05T00:18:11.976Z,55.31
2022-09-05T00:24:26.075Z,55.92
2022-09-05T00:24:30.904Z,55.67
2022-09-05T00:26:23.125Z,55.98
2022-09-05T00:29:01.944Z,55.91
2022-09-05T00:31:54.603Z,55.93
2022-09-05T00:34:47.901Z,56.12
2022-09-05T00:37:32.109Z,56.12
2022-09-05T00:40:21.610Z,56.14
2022-09-05T00:42:54.617Z,56.29
2022-09-05T00:45:32.782Z,55.98
2022-09-05T00:48:15.273Z,56.10
2022-09-05T00:51:01.797Z,56.04
2022-09-05T00:53:43.093Z,56.56
2022-09-05T00:56:33.936Z,56.22
2022-09-05T00:59:43.386Z,56.14
2022-09-05T01:02:51.246Z,56.31
2022-09-05T01:05:44.742Z,56.36
2022-09-05T01:08:46.409Z,56.59
2022-09-05T01:11:28.606Z,56.76
2022-09-05T01:14:12.995Z,56.56
2022-09-05T01:17:16.717Z,56.78
2022-09-05T01:20:19.081Z,57.02
2022-09-05T01:23:51.312Z,56.77
2022-09-05T01:26:52.926Z,56.81
2022-09-05T01:29:29.029Z,56.82
2022-09-05T01:32:28.404Z,57.13
2022-09-05T01:35:22.923Z,56.95
2022-09-05T01:37:58.732Z,57.25
2022-09-05T01:40:35.491Z,57.31
2022-09-05T01:43:19.230Z,57.51
2022-09-05T01:45:52.626Z,57.43
2022-09-05T01:48:34.861Z,57.50
2022-09-05T01:51:29.561Z,57.32
2022-09-05T01:54:24.632Z,57.65
2022-09-05T01:57:09.214Z,57.69
2022-09-05T01:59:48.292Z,58.03
2022-09-05T02:02:33.337Z,58.28
2022-09-05T02:05:48.178Z,58.54
2022-09-05T02:08:48.960Z,58.58
2022-09-05T02:11:34.924Z,58.83
2022-09-05T02:14:12.000Z,59.06
2022-09-05T02:16:56.885Z,58.99
2022-09-05T02:19:32.528Z,58.96
2022-09-05T02:22:08.875Z,58.91
2022-09-05T02:24:39.565Z,59.39
2022-09-05T02:27:30.227Z,59.19
2022-09-05T02:30:12.620Z,59.36
2022-09-05T02:32:49.624Z,59.54
2022-09-05T02:35:29.582Z,59.61
2022-09-05T02:41:47.174Z,59.31
2022-09-05T02:45:12.661Z,59.78
2022-09-05T02:45:13.702Z,59.68
2022-09-05T02:46:55.794Z,59.73
2022-09-05T02:57:11.206Z,60.16
2022-09-05T02:57:28.115Z,60.00
2022-09-05T02:57:37.224Z,60.29
2022-09-05T02:59:05.816Z,60.50
2022-09-05T03:01:53.143Z,60.39
2022-09-05T03:04:34.802Z,60.55
2022-09-05T03:07:29.337Z,60.58
2022-09-05T03:10:39.659Z,60.70
2022-09-05T03:13:58.995Z,60.93
2022-09-05T03:17:16.330Z,60.87
2022-09-05T03:20:42.097Z,60.93
2022-09-05T03:23:59.830Z,61.08
2022-09-05T03:27:37.263Z,61.09
2022-09-05T03:30:14.915Z,61.51
2022-09-05T03:33:36.846Z,61.42
2022-09-05T03:37:07.022Z,61.66
2022-09-05T03:40:16.347Z,61.67
2022-09-05T03:43:03.803Z,61.81
2022-09-05T03:45:59.822Z,62.04
2022-09-05T03:50:47.904Z,62.08
2022-09-05T03:57:11.159Z,62.23
2022-09-05T03:57:25.522Z,62.47
2022-09-05T03:58:56.232Z,62.52
2022-09-05T04:04:27.464Z,62.47
2022-09-05T04:08:17.040Z,62.62
2022-09-05T04:08:18.932Z,62.53
2022-09-05T04:10:29.408Z,62.76
2022-09-05T04:13:03.974Z,62.93
2022-09-05T04:15:39.880Z,62.86
2022-09-05T04:18:33.504Z,62.90
2022-09-05T04:21:09.629Z,63.27
2022-09-05T04:24:02.416Z,63.02
2022-09-05T04:27:00.524Z,63.23
2022-09-05T04:29:43.865Z,63.14
2022-09-05T04:32:24.868Z,63.32
2022-09-05T04:35:15.450Z,63.47
2022-09-05T04:37:55.237Z,63.53
2022-09-05T04:40:41.317Z,63.81
2022-09-05T04:43:20.897Z,64.00
2022-09-05T04:45:54.598Z,63.96
2022-09-05T04:48:28.039Z,64.37
2022-09-05T04:51:08.307Z,64.14
2022-09-05T04:54:07.862Z,64.26
2022-09-05T04:56:42.728Z,64.17
2022-09-05T05:02:33.559Z,64.48
2022-09-05T05:06:02.739Z,64.82
2022-09-05T05:06:11.905Z,64.19
2022-09-05T05:08:31.742Z,64.37
2022-09-05T05:13:33.574Z,64.55
2022-09-05T05:17:56.050Z,64.56
2022-09-05T05:18:07.039Z,64.83
2022-09-05T05:20:41.829Z,64.76
2022-09-05T05:23:07.546Z,64.66
2022-09-05T05:25:50.458Z,64.62
2022-09-05T05:28:28.583Z,64.64
2022-09-05T05:31:01.828Z,64.70
2022-09-05T05:33:36.413Z,64.60
2022-09-05T05:36:08.372Z,64.53
2022-09-05T05:38:45.032Z,64.34
2022-09-05T05:41:22.484Z,64.68
2022-09-05T05:43:52.597Z,64.36
2022-09-05T05:46:36.425Z,64.31
2022-09-05T05:49:28.292Z,64.31
2022-09-05T05:52:24.567Z,64.05
2022-09-05T05:55:14.065Z,64.17
2022-09-05T05:58:15.562Z,64.18
2022-09-05T06:01:41.706Z,63.96
2022-09-05T06:05:16.260Z,63.92
2022-09-05T06:09:14.123Z,63.57
2022-09-05T06:15:00.481Z,63.38
2022-09-05T06:15:26.626Z,63.13
2022-09-05T06:18:42.601Z,62.98
2022-09-05T06:22:09.393Z,62.93
2022-09-05T06:25:22.064Z,62.71
2022-09-05T06:28:18.751Z,62.60
2022-09-05T06:31:22.543Z,62.15
2022-09-05T06:34:00.579Z,62.18
2022-09-05T06:36:57.982Z,61.95
2022-09-05T06:39:54.151Z,61.56
2022-09-05T06:42:42.643Z,61.70
2022-09-05T06:45:58.699Z,61.36
2022-09-05T06:48:46.033Z,61.21
2022-09-05T06:52:27.816Z,61.02
2022-09-05T06:55:35.103Z,60.74
2022-09-05T06:59:09.631Z,60.66
2022-09-05T07:01:59.937Z,60.15
2022-09-05T07:05:24.397Z,59.93
2022-09-05T07:07:42.455Z,59.45
2022-09-05T07:10:37.997Z,58.91
2022-09-05T07:13:16.429Z,59.04
2022-09-05T07:15:55.572Z,58.67
2022-09-05T07:18:34.904Z,58.54
2022-09-05T07:21:18.081Z,58.30
2022-09-05T07:24:08.978Z,57.82
2022-09-05T07:26:51.839Z,57.59
2022-09-05T07:29:28.067Z,57.65
2022-09-05T07:31:57.593Z,57.02
2022-09-05T07:34:30.220Z,56.42
2022-09-05T07:37:15.407Z,56.39
2022-09-05T07:39:51.711Z,56.16
2022-09-05T07:42:27.394Z,56.00
2022-09-05T07:44:59.566Z,55.37
2022-09-05T07:47:31.754Z,55.59
2022-09-05T07:51:07.688Z,55.44
2022-09-05T07:56:56.861Z,55.04
2022-09-05T07:57:00.664Z,54.83
2022-09-05T07:58:49.689Z,54.66
2022-09-05T08:01:22.828Z,54.06
2022-09-05T08:03:57.192Z,53.46
2022-09-05T08:06:48.001Z,53.38
2022-09-05T08:10:06.010Z,53.38
2022-09-05T08:12:18.073Z,53.35
2022-09-05T08:15:10.280Z,53.10
2022-09-05T08:17:58.587Z,53.01
2022-09-05T08:20:35.562Z,52.66
2022-09-05T08:23:14.195Z,52.02
2022-09-05T08:25:57.975Z,51.85
2022-09-05T08:28:38.862Z,51.08
2022-09-05T08:31:14.303Z,50.78
2022-09-05T08:33:43.449Z,50.78
2022-09-05T08:36:25.137Z,51.06
2022-09-05T08:38:54.211Z,50.88
2022-09-05T08:41:49.512Z,50.74
2022-09-05T08:46:43.069Z,50.02
2022-09-05T08:47:25.992Z,50.34
2022-09-05T08:50:26.862Z,49.61
2022-09-05T08:53:18.681Z,49.89
2022-09-05T08:56:10.174Z,48.85
2022-09-05T08:59:32.111Z,48.83
2022-09-05T09:02:45.283Z,48.58
2022-09-05T09:05:14.648Z,48.66
2022-09-05T09:07:51.346Z,48.66
2022-09-05T09:10:40.645Z,48.72
2022-09-05T09:13:28.545Z,47.76
2022-09-05T09:16:06.530Z,47.74
2022-09-05T09:19:00.260Z,47.58
2022-09-05T09:21:37.432Z,47.59
2022-09-05T09:24:20.760Z,47.38
2022-09-05T09:26:56.674Z,46.91
2022-09-05T09:29:26.732Z,46.62
2022-09-05T09:32:07.230Z,45.92
2022-09-05T09:34:58.268Z,46.19
2022-09-05T09:37:59.638Z,45.87
2022-09-05T09:41:07.877Z,45.40
2022-09-05T09:44:03.481Z,45.59
2022-09-05T09:46:41.979Z,44.76
2022-09-05T09:49:43.573Z,44.79
2022-09-05T09:53:27.503Z,44.43
2022-09-05T09:56:39.600Z,44.02
2022-09-05T09:59:30.067Z,44.05
2022-09-05T10:04:54.282Z,43.87
2022-09-05T10:10:39.305Z,43.34
2022-09-05T10:10:51.893Z,42.79
2022-09-05T10:12:15.729Z,42.37
2022-09-05T10:15:06.538Z,42.70
2022-09-05T10:18:33.400Z,41.94
2022-09-05T10:22:34.472Z,42.79
2022-09-05T10:25:16.506Z,42.55
2022-09-05T10:28:06.650Z,42.38
2022-09-05T10:32:25.972Z,41.70
2022-09-05T10:35:05.902Z,41.11
2022-09-05T10:36:31.242Z,41.23
2022-09-05T10:39:16.641Z,41.20
2022-09-05T10:41:51.030Z,41.02
2022-09-05T10:44:32.029Z,40.80
2022-09-05T10:47:12.116Z,41.10
2022-09-05T10:49:45.343Z,40.10
2022-09-05T10:52:22.530Z,40.50
2022-09-05T10:55:18.610Z,39.54
2022-09-05T10:58:05.574Z,39.58
2022-09-05T11:02:22.026Z,40.32
2022-09-05T11:03:53.811Z,39.58
2022-09-05T11:06:44.977Z,38.77
2022-09-05T11:09:26.067Z,38.82
2022-09-05T11:12:05.688Z,38.74
2022-09-05T11:14:49.401Z,38.87
2022-09-05T11:17:30.514Z,38.88
2022-09-05T11:20:35.383Z,38.53
2022-09-05T11:23:12.714Z,38.39
2022-09-05T11:25:41.487Z,38.86
2022-09-05T11:28:17.157Z,37.48
2022-09-05T11:30:54.225Z,37.33
2022-09-05T11:39:46.222Z,37.84
2022-09-05T11:40:02.804Z,36.75
2022-09-05T11:40:31.418Z,36.74
2022-09-05T11:43:51.592Z,36.26
2022-09-05T11:46:38.198Z,35.93
2022-09-05T11:49:52.763Z,35.33
2022-09-05T11:52:59.419Z,34.73
2022-09-05T11:56:00.958Z,34.68
2022-09-05T11:59:07.882Z,33.94
2022-09-05T12:01:51.595Z,33.07
2022-09-05T12:04:41.913Z,33.22
2022-09-05T12:07:35.439Z,31.71
2022-09-05T12:10:45.753Z,32.15
2022-09-05T12:13:32.190Z,30.87
2022-09-05T12:16:08.278Z,30.38
2022-09-05T12:18:48.969Z,29.99
2022-09-05T12:21:31.862Z,30.13
2022-09-05T12:25:16.860Z,29.63
2022-09-05T12:27:44.199Z,29.58
2022-09-05T12:30:00.257Z,28.81
2022-09-05T12:36:04.903Z,28.41
2022-09-05T12:36:05.483Z,28.31
2022-09-05T12:40:54.550Z,28.00
2022-09-05T12:41:45.266Z,27.79
2022-09-05T12:44:44.293Z,27.55
2022-09-05T12:47:17.075Z,26.76
2022-09-05T12:50:02.942Z,26.27
2022-09-05T12:52:44.126Z,25.81
2022-09-05T12:55:22.383Z,24.88
2022-09-05T13:02:55.277Z,24.88
2022-09-05T13:03:06.578Z,24.51
2022-09-05T13:04:16.081Z,24.43
2022-09-05T13:06:42.491Z,24.80
2022-09-05T13:09:22.329Z,24.16
2022-09-05T13:14:54.225Z,23.62
2022-09-05T13:15:11.523Z,24.04
2022-09-05T13:17:52.244Z,23.81
2022-09-05T13:20:32.453Z,24.31
2022-09-05T13:23:07.825Z,23.93
2022-09-05T13:25:37.844Z,23.00
2022-09-05T13:28:11.045Z,23.15
2022-09-05T13:37:54.659Z,23.80
2022-09-05T13:37:58.028Z,24.79
2022-09-05T13:38:04.720Z,24.46
2022-09-05T13:39:28.175Z,24.61
2022-09-05T13:42:03.621Z,23.92
2022-09-05T13:44:40.367Z,23.24
2022-09-05T13:47:29.733Z,23.50
2022-09-05T13:50:20.056Z,24.32
2022-09-05T13:52:55.351Z,24.16
2022-09-05T13:55:44.069Z,24.17
2022-09-05T13:58:21.542Z,23.45
2022-09-05T14:01:34.922Z,23.54
2022-09-05T14:05:16.306Z,22.60
2022-09-05T14:08:34.388Z,21.88
2022-09-05T14:11:48.807Z,23.16
2022-09-05T14:17:51.101Z,21.84
2022-09-05T14:20:37.581Z,23.72
2022-09-05T14:23:10.052Z,24.09
2022-09-05T14:25:42.871Z,22.37
2022-09-05T14:28:19.159Z,21.56
2022-09-05T14:34:52.016Z,21.18
2022-09-05T14:37:42.241Z,19.45
2022-09-05T14:37:59.995Z,20.37
2022-09-05T14:40:29.789Z,19.69
2022-09-05T14:43:47.521Z,19.90
2022-09-05T14:46:49.723Z,19.65
2022-09-05T14:49:53.252Z,20.21
2022-09-05T14:52:26.656Z,21.24
2022-09-05T15:02:43.970Z,22.55
2022-09-05T15:02:52.912Z,23.82
2022-09-05T15:06:38.222Z,24.59
2022-09-05T15:11:24.802Z,25.52
2022-09-05T15:12:19.781Z,26.31
2022-09-05T15:15:13.824Z,25.95
2022-09-05T15:17:48.426Z,26.90
2022-09-05T15:20:35.813Z,28.07
2022-09-05T15:23:16.332Z,27.77
2022-09-05T15:25:48.774Z,27.36
2022-09-05T15:28:23.083Z,28.26
2022-09-05T15:31:12.481Z,27.98
2022-09-05T15:33:43.923Z,27.13
2022-09-05T15:36:17.239Z,27.51
2022-09-05T15:38:54.401Z,27.76
2022-09-05T15:41:25.304Z,27.18
2022-09-05T15:44:01.711Z,26.53
2022-09-05T15:46:49.222Z,25.96
2022-09-05T15:49:32.892Z,26.01
2022-09-05T15:52:07.762Z,25.86
2022-09-05T15:54:42.907Z,26.13
2022-09-05T15:57:20.293Z,26.49
2022-09-05T15:59:58.696Z,27.34
2022-09-05T16:02:31.757Z,27.73
2022-09-05T16:08:12.139Z,28.80
2022-09-05T16:10:41.559Z,29.13
2022-09-05T16:12:00.404Z,28.76
2022-09-05T16:14:22.385Z,29.43
2022-09-05T16:23:20.340Z,29.51
2022-09-05T16:23:23.754Z,29.79
2022-09-05T16:23:26.770Z,29.34
2022-09-05T16:25:36.174Z,28.16
2022-09-05T16:28:07.837Z,27.87
2022-09-05T16:30:38.302Z,27.85
2022-09-05T16:33:14.675Z,28.67
2022-09-05T16:35:51.105Z,28.95
2022-09-05T16:38:48.552Z,29.02
2022-09-05T16:41:24.969Z,28.90
2022-09-05T16:43:57.954Z,28.97
2022-09-05T16:46:34.796Z,28.58
2022-09-05T16:49:11.728Z,28.97
2022-09-05T16:51:45.569Z,29.53
2022-09-05T16:54:30.909Z,30.07
2022-09-05T16:57:07.268Z,30.05
2022-09-05T16:59:39.146Z,31.45
2022-09-05T17:02:10.750Z,31.46
2022-09-05T17:05:04.813Z,32.39
2022-09-05T17:07:52.964Z,32.77
2022-09-05T17:10:25.723Z,33.26
2022-09-05T17:12:56.508Z,34.11
2022-09-05T17:15:29.006Z,34.95
2022-09-05T17:18:19.519Z,35.25
2022-09-05T17:20:56.182Z,35.19
2022-09-05T17:29:16.696Z,35.69
2022-09-05T17:29:45.518Z,36.48
2022-09-05T17:32:48.254Z,37.37
2022-09-05T17:35:42.884Z,37.54
2022-09-05T17:38:49.492Z,38.11
2022-09-05T17:42:02.181Z,38.41
2022-09-05T17:44:42.864Z,38.94
2022-09-05T17:47:35.354Z,39.05
2022-09-05T17:50:18.891Z,39.26
2022-09-05T17:53:26.291Z,39.40
2022-09-05T17:56:34.813Z,40.19
2022-09-05T17:59:07.328Z,40.74
2022-09-05T18:01:37.189Z,40.82
2022-09-05T18:04:17.990Z,41.07
2022-09-05T18:06:59.965Z,41.19
2022-09-05T18:09:59.021Z,41.56
2022-09-05T18:13:12.451Z,42.37
2022-09-05T18:16:12.589Z,42.54
2022-09-05T18:19:28.658Z,42.85
2022-09-05T18:21:50.520Z,43.36
2022-09-05T18:24:33.532Z,43.93
2022-09-05T18:28:03.436Z,44.46
2022-09-05T18:30:11.454Z,44.32
2022-09-05T18:32:45.109Z,45.10
2022-09-05T18:35:37.871Z,45.29
2022-09-05T18:38:51.968Z,45.24
2022-09-05T18:41:18.264Z,45.89
2022-09-05T18:44:01.622Z,46.00
2022-09-05T18:46:45.981Z,46.49
2022-09-05T18:50:22.001Z,46.79
2022-09-05T18:52:16.606Z,47.00
2022-09-05T18:56:09.323Z,47.40
2022-09-05T18:57:50.466Z,48.19
2022-09-05T19:00:33.314Z,48.33
2022-09-05T19:03:18.672Z,49.23
2022-09-05T19:05:51.983Z,49.65
2022-09-05T19:08:29.210Z,50.07
2022-09-05T19:11:27.553Z,50.22
2022-09-05T19:13:58.484Z,50.29
2022-09-05T19:16:47.839Z,50.70
2022-09-05T19:19:19.441Z,51.18
2022-09-05T19:22:39.582Z,51.17
2022-09-05T19:24:47.845Z,51.35
2022-09-05T19:28:44.455Z,51.53
2022-09-05T19:36:44.396Z,51.03
2022-09-05T19:37:03.786Z,51.17
2022-09-05T19:37:06.087Z,51.23
2022-09-05T19:38:55.079Z,51.94
2022-09-05T19:47:35.257Z,51.80
2022-09-05T19:47:48.946Z,51.63
2022-09-05T19:47:56.533Z,52.00
2022-09-05T19:50:22.114Z,52.12
2022-09-05T19:52:54.279Z,51.68
2022-09-05T19:55:26.057Z,51.84
2022-09-05T19:58:19.103Z,52.24
2022-09-05T20:01:00.625Z,52.08
2022-09-05T20:03:38.439Z,52.14
2022-09-05T20:06:29.243Z,52.07
2022-09-05T20:09:14.628Z,51.73
2022-09-05T20:11:49.587Z,51.90
2022-09-05T20:14:26.870Z,51.76
2022-09-05T20:16:58.770Z,52.05
2022-09-05T20:19:33.994Z,52.21
2022-09-05T20:22:46.717Z,52.26
2022-09-05T20:24:56.459Z,52.08
2022-09-05T20:27:28.841Z,52.64
2022-09-05T20:30:02.333Z,52.49
2022-09-05T20:32:39.979Z,52.81
2022-09-05T20:38:04.781Z,53.18
2022-09-05T20:43:17.029Z,53.12
2022-09-05T20:43:32.213Z,53.51
2022-09-05T20:43:58.971Z,53.49
2022-09-05T20:50:32.055Z,53.20
2022-09-05T20:54:23.021Z,53.46
2022-09-05T20:54:28.320Z,53.89
2022-09-05T20:55:38.461Z,53.68
2022-09-05T20:58:11.804Z,53.90
2022-09-05T21:01:11.665Z,54.18
2022-09-05T21:03:40.931Z,54.01
2022-09-05T21:06:25.640Z,54.09
2022-09-05T21:08:56.000Z,54.28
2022-09-05T21:11:32.377Z,53.80
2022-09-05T21:14:04.481Z,53.68
2022-09-05T21:16:36.623Z,54.01
2022-09-05T21:19:06.320Z,53.87
2022-09-05T21:21:36.759Z,53.82
2022-09-05T21:24:17.360Z,54.03
2022-09-05T21:26:49.029Z,53.63
2022-09-05T21:29:32.655Z,53.76
2022-09-05T21:32:10.467Z,54.19
2022-09-05T21:34:45.307Z,53.86
2022-09-05T21:37:15.815Z,53.95
2022-09-05T21:40:00.351Z,53.79
2022-09-05T21:47:21.674Z,53.86
2022-09-05T21:47:48.685Z,53.97
2022-09-05T21:48:13.186Z,53.71
2022-09-05T21:50:46.849Z,53.75
2022-09-05T21:57:18.442Z,53.66
2022-09-05T21:59:26.654Z,53.80
2022-09-05T21:59:36.676Z,53.79
2022-09-05T22:02:08.764Z,53.70
2022-09-05T22:04:41.532Z,53.50
2022-09-05T22:07:31.709Z,53.51
2022-09-05T22:10:01.627Z,53.87
2022-09-05T22:12:33.529Z,53.97
2022-09-05T22:15:10.104Z,54.00
2022-09-05T22:17:54.208Z,53.90
2022-09-05T22:20:43.194Z,54.09
2022-09-05T22:23:13.096Z,54.07
2022-09-05T22:25:41.587Z,53.94
2022-09-05T22:28:15.832Z,54.21
2022-09-05T22:30:44.429Z,54.37
2022-09-05T22:33:13.021Z,54.20
2022-09-05T22:35:41.844Z,54.12
2022-09-05T22:38:17.821Z,54.41
2022-09-05T22:40:49.321Z,54.28
2022-09-05T22:43:17.762Z,54.52
2022-09-05T22:45:45.875Z,54.73
2022-09-05T22:48:15.695Z,54.67
2022-09-05T22:50:44.286Z,55.04
2022-09-05T22:53:13.806Z,55.12
2022-09-05T22:55:44.365Z,55.13
2022-09-05T22:58:15.254Z,54.96
2022-09-05T23:00:44.165Z,54.87
2022-09-05T23:03:12.340Z,55.05
2022-09-05T23:05:40.580Z,54.89
2022-09-05T23:08:10.086Z,55.04
2022-09-05T23:10:39.728Z,54.91
2022-09-05T23:13:10.284Z,55.00
2022-09-05T23:15:40.024Z,54.92
2022-09-05T23:18:08.282Z,55.01
2022-09-05T23:20:36.395Z,55.25
2022-09-05T23:23:06.930Z,54.93
2022-09-05T23:25:36.659Z,54.79
2022-09-05T23:28:09.287Z,55.16
2022-09-05T23:30:38.410Z,55.22
2022-09-05T23:33:08.642Z,55.28
2022-09-05T23:35:37.250Z,55.14
2022-09-05T23:38:11.280Z,55.32
2022-09-05T23:40:39.918Z,55.58
2022-09-05T23:43:10.041Z,55.59
2022-09-05T23:45:38.132Z,55.71
2022-09-05T23:48:06.397Z,55.90
2022-09-05T23:50:34.574Z,56.02
2022-09-05T23:53:05.212Z,55.99
2022-09-05T23:55:33.600Z,56.11
2022-09-05T23:58:01.868Z,55.89
